sensor_id;sensor_type;location;lat;lon;timestamp;P1;durP1;ratioP1;P2;durP2;ratioP2
21266;SDS011;10791;53.108;18.326;2023-09-18T00:04:43;19.00;;;10.05;;
21266;SDS011;10791;53.108;18.326;2023-09-18T00:09:46;15.63;;;8.80;;
21266;SDS011;10791;53.108;18.326;2023-09-18T00:14:51;14.70;;;9.38;;
21266;SDS011;10791;53.108;18.326;2023-09-18T00:19:54;16.00;;;9.80;;
21266;SDS011;10791;53.108;18.326;2023-09-18T00:24:57;16.33;;;9.82;;
21266;SDS011;10791;53.108;18.326;2023-09-18T00:30:00;17.25;;;10.13;;
21266;SDS011;10791;53.108;18.326;2023-09-18T00:35:04;19.90;;;10.70;;
21266;SDS011;10791;53.108;18.326;2023-09-18T00:40:07;14.85;;;9.63;;
21266;SDS011;10791;53.108;18.326;2023-09-18T00:45:10;13.95;;;9.25;;
21266;SDS011;10791;53.108;18.326;2023-09-18T00:50:13;16.85;;;9.35;;
21266;SDS011;10791;53.108;18.326;2023-09-18T00:55:17;16.05;;;9.27;;
21266;SDS011;10791;53.108;18.326;2023-09-18T01:00:20;15.00;;;9.68;;
21266;SDS011;10791;53.108;18.326;2023-09-18T01:05:24;14.50;;;9.73;;
21266;SDS011;10791;53.108;18.326;2023-09-18T01:10:43;14.32;;;9.32;;
21266;SDS011;10791;53.108;18.326;2023-09-18T01:16:10;14.70;;;9.27;;
21266;SDS011;10791;53.108;18.326;2023-09-18T01:21:19;17.97;;;10.10;;
21266;SDS011;10791;53.108;18.326;2023-09-18T01:26:25;17.38;;;10.35;;
21266;SDS011;10791;53.108;18.326;2023-09-18T01:31:28;14.20;;;9.57;;
21266;SDS011;10791;53.108;18.326;2023-09-18T01:36:31;16.97;;;10.07;;
21266;SDS011;10791;53.108;18.326;2023-09-18T01:41:34;18.15;;;10.07;;
21266;SDS011;10791;53.108;18.326;2023-09-18T01:46:38;17.37;;;9.93;;
21266;SDS011;10791;53.108;18.326;2023-09-18T01:51:42;15.33;;;10.70;;
21266;SDS011;10791;53.108;18.326;2023-09-18T01:56:45;15.87;;;10.97;;
21266;SDS011;10791;53.108;18.326;2023-09-18T02:01:48;14.32;;;9.88;;
21266;SDS011;10791;53.108;18.326;2023-09-18T02:06:52;16.30;;;10.40;;
21266;SDS011;10791;53.108;18.326;2023-09-18T02:11:55;17.47;;;9.77;;
21266;SDS011;10791;53.108;18.326;2023-09-18T02:16:59;20.87;;;12.20;;
21266;SDS011;10791;53.108;18.326;2023-09-18T02:22:02;18.27;;;10.53;;
21266;SDS011;10791;53.108;18.326;2023-09-18T02:27:05;16.00;;;9.93;;
21266;SDS011;10791;53.108;18.326;2023-09-18T02:32:08;15.83;;;10.00;;
21266;SDS011;10791;53.108;18.326;2023-09-18T02:37:12;14.87;;;9.23;;
21266;SDS011;10791;53.108;18.326;2023-09-18T02:42:15;15.67;;;9.33;;
21266;SDS011;10791;53.108;18.326;2023-09-18T02:47:18;16.10;;;10.60;;
21266;SDS011;10791;53.108;18.326;2023-09-18T02:52:21;16.37;;;10.10;;
21266;SDS011;10791;53.108;18.326;2023-09-18T02:57:24;15.47;;;9.07;;
21266;SDS011;10791;53.108;18.326;2023-09-18T03:02:27;17.23;;;11.30;;
21266;SDS011;10791;53.108;18.326;2023-09-18T03:07:31;15.97;;;10.43;;
21266;SDS011;10791;53.108;18.326;2023-09-18T03:12:33;18.93;;;9.77;;
21266;SDS011;10791;53.108;18.326;2023-09-18T03:17:36;19.40;;;10.30;;
21266;SDS011;10791;53.108;18.326;2023-09-18T03:22:40;17.60;;;10.17;;
21266;SDS011;10791;53.108;18.326;2023-09-18T03:27:43;12.83;;;8.50;;
21266;SDS011;10791;53.108;18.326;2023-09-18T03:32:46;20.47;;;11.40;;
21266;SDS011;10791;53.108;18.326;2023-09-18T03:37:51;19.77;;;10.93;;
21266;SDS011;10791;53.108;18.326;2023-09-18T03:42:56;19.10;;;10.33;;
21266;SDS011;10791;53.108;18.326;2023-09-18T03:48:03;19.50;;;11.60;;
21266;SDS011;10791;53.108;18.326;2023-09-18T03:53:06;18.40;;;10.23;;
21266;SDS011;10791;53.108;18.326;2023-09-18T03:58:09;18.80;;;11.30;;
21266;SDS011;10791;53.108;18.326;2023-09-18T04:03:13;16.93;;;10.33;;
21266;SDS011;10791;53.108;18.326;2023-09-18T04:08:16;18.77;;;11.60;;
21266;SDS011;10791;53.108;18.326;2023-09-18T04:13:20;17.13;;;9.43;;
21266;SDS011;10791;53.108;18.326;2023-09-18T04:18:23;19.23;;;11.40;;
21266;SDS011;10791;53.108;18.326;2023-09-18T04:23:26;17.20;;;10.83;;
21266;SDS011;10791;53.108;18.326;2023-09-18T04:28:30;18.30;;;10.60;;
21266;SDS011;10791;53.108;18.326;2023-09-18T04:33:33;21.37;;;10.70;;
21266;SDS011;10791;53.108;18.326;2023-09-18T04:38:36;17.77;;;9.80;;
21266;SDS011;10791;53.108;18.326;2023-09-18T04:43:39;16.97;;;9.10;;
21266;SDS011;10791;53.108;18.326;2023-09-18T04:48:42;16.20;;;8.73;;
21266;SDS011;10791;53.108;18.326;2023-09-18T04:53:45;19.27;;;9.17;;
21266;SDS011;10791;53.108;18.326;2023-09-18T04:58:48;17.93;;;9.80;;
21266;SDS011;10791;53.108;18.326;2023-09-18T05:03:52;21.23;;;10.60;;
21266;SDS011;10791;53.108;18.326;2023-09-18T05:08:56;20.60;;;10.20;;
21266;SDS011;10791;53.108;18.326;2023-09-18T05:13:59;20.27;;;10.70;;
21266;SDS011;10791;53.108;18.326;2023-09-18T05:19:02;24.10;;;10.83;;
21266;SDS011;10791;53.108;18.326;2023-09-18T05:24:06;18.17;;;11.23;;
21266;SDS011;10791;53.108;18.326;2023-09-18T05:29:09;21.17;;;11.30;;
21266;SDS011;10791;53.108;18.326;2023-09-18T05:34:13;20.07;;;10.40;;
21266;SDS011;10791;53.108;18.326;2023-09-18T05:39:16;20.10;;;11.33;;
21266;SDS011;10791;53.108;18.326;2023-09-18T05:44:19;17.50;;;10.23;;
21266;SDS011;10791;53.108;18.326;2023-09-18T05:49:22;17.77;;;10.53;;
21266;SDS011;10791;53.108;18.326;2023-09-18T05:54:26;17.97;;;11.27;;
21266;SDS011;10791;53.108;18.326;2023-09-18T05:59:29;17.13;;;10.90;;
21266;SDS011;10791;53.108;18.326;2023-09-18T06:04:32;18.60;;;12.17;;
21266;SDS011;10791;53.108;18.326;2023-09-18T06:09:39;20.30;;;12.27;;
21266;SDS011;10791;53.108;18.326;2023-09-18T06:14:42;22.40;;;12.35;;
21266;SDS011;10791;53.108;18.326;2023-09-18T06:19:45;20.42;;;12.90;;
21266;SDS011;10791;53.108;18.326;2023-09-18T06:24:48;19.52;;;13.73;;
21266;SDS011;10791;53.108;18.326;2023-09-18T06:29:51;21.45;;;12.43;;
21266;SDS011;10791;53.108;18.326;2023-09-18T06:34:54;20.92;;;12.07;;
21266;SDS011;10791;53.108;18.326;2023-09-18T06:39:59;19.38;;;12.43;;
21266;SDS011;10791;53.108;18.326;2023-09-18T06:45:06;20.25;;;11.55;;
21266;SDS011;10791;53.108;18.326;2023-09-18T06:50:10;19.30;;;11.82;;
21266;SDS011;10791;53.108;18.326;2023-09-18T06:55:15;22.85;;;11.18;;
21266;SDS011;10791;53.108;18.326;2023-09-18T07:00:19;17.40;;;11.77;;
21266;SDS011;10791;53.108;18.326;2023-09-18T07:05:27;17.15;;;11.05;;
21266;SDS011;10791;53.108;18.326;2023-09-18T07:10:30;17.65;;;12.05;;
21266;SDS011;10791;53.108;18.326;2023-09-18T07:15:33;17.48;;;11.85;;
21266;SDS011;10791;53.108;18.326;2023-09-18T07:20:36;19.25;;;11.38;;
21266;SDS011;10791;53.108;18.326;2023-09-18T07:25:38;17.70;;;10.77;;
21266;SDS011;10791;53.108;18.326;2023-09-18T07:30:46;20.50;;;11.82;;
21266;SDS011;10791;53.108;18.326;2023-09-18T07:35:50;15.52;;;11.00;;
21266;SDS011;10791;53.108;18.326;2023-09-18T07:40:55;13.43;;;9.60;;
21266;SDS011;10791;53.108;18.326;2023-09-18T07:45:59;14.52;;;9.05;;
21266;SDS011;10791;53.108;18.326;2023-09-18T07:51:04;16.35;;;9.38;;
21266;SDS011;10791;53.108;18.326;2023-09-18T07:56:07;12.68;;;9.38;;
21266;SDS011;10791;53.108;18.326;2023-09-18T08:01:10;14.35;;;9.82;;
21266;SDS011;10791;53.108;18.326;2023-09-18T08:06:14;13.88;;;8.93;;
21266;SDS011;10791;53.108;18.326;2023-09-18T08:11:20;10.73;;;7.93;;
21266;SDS011;10791;53.108;18.326;2023-09-18T08:16:23;10.07;;;8.52;;
21266;SDS011;10791;53.108;18.326;2023-09-18T08:21:26;10.48;;;7.07;;
21266;SDS011;10791;53.108;18.326;2023-09-18T08:26:31;9.75;;;7.35;;
21266;SDS011;10791;53.108;18.326;2023-09-18T08:31:34;10.85;;;7.43;;
21266;SDS011;10791;53.108;18.326;2023-09-18T08:36:37;12.35;;;7.03;;
21266;SDS011;10791;53.108;18.326;2023-09-18T08:41:41;8.85;;;6.72;;
21266;SDS011;10791;53.108;18.326;2023-09-18T08:46:45;8.68;;;6.35;;
21266;SDS011;10791;53.108;18.326;2023-09-18T08:51:53;9.13;;;5.97;;
21266;SDS011;10791;53.108;18.326;2023-09-18T08:56:57;7.38;;;5.90;;
21266;SDS011;10791;53.108;18.326;2023-09-18T09:02:01;7.45;;;6.07;;
21266;SDS011;10791;53.108;18.326;2023-09-18T09:07:04;8.23;;;5.72;;
21266;SDS011;10791;53.108;18.326;2023-09-18T09:12:08;7.25;;;5.72;;
21266;SDS011;10791;53.108;18.326;2023-09-18T09:17:11;7.78;;;5.20;;
21266;SDS011;10791;53.108;18.326;2023-09-18T09:22:21;11.52;;;5.38;;
21266;SDS011;10791;53.108;18.326;2023-09-18T09:27:24;6.22;;;4.75;;
21266;SDS011;10791;53.108;18.326;2023-09-18T09:32:29;9.13;;;5.13;;
21266;SDS011;10791;53.108;18.326;2023-09-18T09:37:36;5.90;;;4.75;;
21266;SDS011;10791;53.108;18.326;2023-09-18T09:42:39;7.10;;;5.25;;
21266;SDS011;10791;53.108;18.326;2023-09-18T09:47:45;6.28;;;4.97;;
21266;SDS011;10791;53.108;18.326;2023-09-18T09:52:49;7.20;;;5.03;;
21266;SDS011;10791;53.108;18.326;2023-09-18T09:57:57;7.38;;;5.10;;
21266;SDS011;10791;53.108;18.326;2023-09-18T10:03:04;6.90;;;5.15;;
21266;SDS011;10791;53.108;18.326;2023-09-18T10:08:18;8.07;;;4.97;;
21266;SDS011;10791;53.108;18.326;2023-09-18T10:13:41;6.90;;;4.65;;
21266;SDS011;10791;53.108;18.326;2023-09-18T10:24:14;8.68;;;4.97;;
21266;SDS011;10791;53.108;18.326;2023-09-18T10:29:34;8.60;;;4.70;;
21266;SDS011;10791;53.108;18.326;2023-09-18T10:34:38;10.82;;;5.15;;
21266;SDS011;10791;53.108;18.326;2023-09-18T10:39:43;9.70;;;6.28;;
21266;SDS011;10791;53.108;18.326;2023-09-18T10:44:51;10.73;;;5.65;;
21266;SDS011;10791;53.108;18.326;2023-09-18T10:49:54;9.27;;;6.97;;
21266;SDS011;10791;53.108;18.326;2023-09-18T10:54:57;8.07;;;6.45;;
21266;SDS011;10791;53.108;18.326;2023-09-18T11:00:00;10.82;;;7.40;;
21266;SDS011;10791;53.108;18.326;2023-09-18T11:05:26;14.00;;;8.98;;
21266;SDS011;10791;53.108;18.326;2023-09-18T11:10:33;17.67;;;7.85;;
21266;SDS011;10791;53.108;18.326;2023-09-18T11:15:36;9.40;;;7.38;;
21266;SDS011;10791;53.108;18.326;2023-09-18T11:20:39;11.68;;;7.65;;
21266;SDS011;10791;53.108;18.326;2023-09-18T11:25:43;10.02;;;7.43;;
21266;SDS011;10791;53.108;18.326;2023-09-18T11:30:51;8.82;;;7.00;;
21266;SDS011;10791;53.108;18.326;2023-09-18T11:36:03;12.52;;;6.40;;
21266;SDS011;10791;53.108;18.326;2023-09-18T11:41:21;7.45;;;5.00;;
21266;SDS011;10791;53.108;18.326;2023-09-18T11:46:27;6.75;;;5.28;;
21266;SDS011;10791;53.108;18.326;2023-09-18T11:51:33;6.85;;;5.80;;
21266;SDS011;10791;53.108;18.326;2023-09-18T11:56:38;8.65;;;6.15;;
21266;SDS011;10791;53.108;18.326;2023-09-18T12:01:42;8.30;;;5.53;;
21266;SDS011;10791;53.108;18.326;2023-09-18T12:06:49;7.18;;;5.25;;
21266;SDS011;10791;53.108;18.326;2023-09-18T12:11:52;7.32;;;4.90;;
21266;SDS011;10791;53.108;18.326;2023-09-18T12:16:56;6.43;;;4.35;;
21266;SDS011;10791;53.108;18.326;2023-09-18T12:22:03;7.15;;;4.68;;
21266;SDS011;10791;53.108;18.326;2023-09-18T12:27:06;5.60;;;4.57;;
21266;SDS011;10791;53.108;18.326;2023-09-18T12:32:10;7.63;;;3.53;;
21266;SDS011;10791;53.108;18.326;2023-09-18T12:37:16;5.78;;;4.20;;
21266;SDS011;10791;53.108;18.326;2023-09-18T12:42:27;9.23;;;5.05;;
21266;SDS011;10791;53.108;18.326;2023-09-18T12:47:31;6.00;;;4.50;;
21266;SDS011;10791;53.108;18.326;2023-09-18T12:52:34;7.63;;;5.07;;
21266;SDS011;10791;53.108;18.326;2023-09-18T12:57:39;6.47;;;5.10;;
21266;SDS011;10791;53.108;18.326;2023-09-18T13:02:44;6.70;;;4.97;;
21266;SDS011;10791;53.108;18.326;2023-09-18T13:07:47;9.68;;;5.35;;
21266;SDS011;10791;53.108;18.326;2023-09-18T13:12:53;6.03;;;4.63;;
21266;SDS011;10791;53.108;18.326;2023-09-18T13:17:58;6.53;;;4.72;;
21266;SDS011;10791;53.108;18.326;2023-09-18T13:23:03;7.25;;;5.20;;
21266;SDS011;10791;53.108;18.326;2023-09-18T13:28:08;6.47;;;4.60;;
21266;SDS011;10791;53.108;18.326;2023-09-18T13:33:12;6.07;;;4.40;;
21266;SDS011;10791;53.108;18.326;2023-09-18T13:38:18;7.80;;;5.03;;
21266;SDS011;10791;53.108;18.326;2023-09-18T13:43:21;8.27;;;5.47;;
21266;SDS011;10791;53.108;18.326;2023-09-18T13:48:25;7.75;;;5.43;;
21266;SDS011;10791;53.108;18.326;2023-09-18T13:53:28;7.05;;;5.80;;
21266;SDS011;10791;53.108;18.326;2023-09-18T13:58:32;8.48;;;5.40;;
21266;SDS011;10791;53.108;18.326;2023-09-18T14:03:36;11.07;;;5.93;;
21266;SDS011;10791;53.108;18.326;2023-09-18T14:08:39;10.98;;;6.28;;
21266;SDS011;10791;53.108;18.326;2023-09-18T14:13:42;8.60;;;6.10;;
21266;SDS011;10791;53.108;18.326;2023-09-18T14:18:45;9.43;;;6.43;;
21266;SDS011;10791;53.108;18.326;2023-09-18T14:23:48;8.27;;;6.68;;
21266;SDS011;10791;53.108;18.326;2023-09-18T14:28:51;8.25;;;6.60;;
21266;SDS011;10791;53.108;18.326;2023-09-18T14:33:54;8.50;;;6.32;;
21266;SDS011;10791;53.108;18.326;2023-09-18T14:39:02;8.20;;;6.60;;
21266;SDS011;10791;53.108;18.326;2023-09-18T14:44:05;10.38;;;7.28;;
21266;SDS011;10791;53.108;18.326;2023-09-18T14:49:11;9.90;;;6.90;;
21266;SDS011;10791;53.108;18.326;2023-09-18T14:54:14;11.10;;;7.30;;
21266;SDS011;10791;53.108;18.326;2023-09-18T14:59:17;8.50;;;7.15;;
21266;SDS011;10791;53.108;18.326;2023-09-18T15:04:36;10.18;;;7.88;;
21266;SDS011;10791;53.108;18.326;2023-09-18T15:09:39;8.82;;;6.65;;
21266;SDS011;10791;53.108;18.326;2023-09-18T15:14:42;13.23;;;7.38;;
21266;SDS011;10791;53.108;18.326;2023-09-18T15:19:45;11.48;;;7.18;;
21266;SDS011;10791;53.108;18.326;2023-09-18T15:24:50;11.45;;;7.47;;
21266;SDS011;10791;53.108;18.326;2023-09-18T15:29:54;12.10;;;7.70;;
21266;SDS011;10791;53.108;18.326;2023-09-18T15:35:01;11.98;;;7.93;;
21266;SDS011;10791;53.108;18.326;2023-09-18T15:40:05;9.52;;;7.43;;
21266;SDS011;10791;53.108;18.326;2023-09-18T15:45:09;11.57;;;8.02;;
21266;SDS011;10791;53.108;18.326;2023-09-18T15:50:13;11.73;;;7.18;;
21266;SDS011;10791;53.108;18.326;2023-09-18T15:55:16;11.27;;;8.73;;
21266;SDS011;10791;53.108;18.326;2023-09-18T16:00:19;9.63;;;7.30;;
21266;SDS011;10791;53.108;18.326;2023-09-18T16:05:25;17.55;;;7.70;;
21266;SDS011;10791;53.108;18.326;2023-09-18T16:10:28;9.63;;;7.32;;
21266;SDS011;10791;53.108;18.326;2023-09-18T16:15:31;10.52;;;8.40;;
21266;SDS011;10791;53.108;18.326;2023-09-18T16:20:34;11.52;;;7.95;;
21266;SDS011;10791;53.108;18.326;2023-09-18T16:25:37;11.50;;;7.78;;
21266;SDS011;10791;53.108;18.326;2023-09-18T16:30:45;17.23;;;8.52;;
21266;SDS011;10791;53.108;18.326;2023-09-18T16:35:58;8.90;;;7.13;;
21266;SDS011;10791;53.108;18.326;2023-09-18T16:41:01;10.35;;;7.70;;
21266;SDS011;10791;53.108;18.326;2023-09-18T16:46:04;10.93;;;7.80;;
21266;SDS011;10791;53.108;18.326;2023-09-18T16:51:12;10.45;;;7.22;;
21266;SDS011;10791;53.108;18.326;2023-09-18T16:56:15;12.95;;;8.23;;
21266;SDS011;10791;53.108;18.326;2023-09-18T17:01:18;14.80;;;8.57;;
21266;SDS011;10791;53.108;18.326;2023-09-18T17:06:21;10.95;;;8.88;;
21266;SDS011;10791;53.108;18.326;2023-09-18T17:11:24;12.70;;;8.25;;
21266;SDS011;10791;53.108;18.326;2023-09-18T17:16:27;13.10;;;8.93;;
21266;SDS011;10791;53.108;18.326;2023-09-18T17:21:30;12.45;;;8.75;;
21266;SDS011;10791;53.108;18.326;2023-09-18T17:26:33;13.85;;;9.38;;
21266;SDS011;10791;53.108;18.326;2023-09-18T17:31:40;13.35;;;9.20;;
21266;SDS011;10791;53.108;18.326;2023-09-18T17:36:43;15.27;;;9.35;;
21266;SDS011;10791;53.108;18.326;2023-09-18T17:41:51;11.57;;;7.93;;
21266;SDS011;10791;53.108;18.326;2023-09-18T17:46:55;14.48;;;9.65;;
21266;SDS011;10791;53.108;18.326;2023-09-18T17:51:58;11.90;;;9.13;;
21266;SDS011;10791;53.108;18.326;2023-09-18T17:57:05;14.20;;;9.60;;
21266;SDS011;10791;53.108;18.326;2023-09-18T18:02:10;15.02;;;9.63;;
21266;SDS011;10791;53.108;18.326;2023-09-18T18:07:14;16.73;;;10.73;;
21266;SDS011;10791;53.108;18.326;2023-09-18T18:12:17;21.25;;;11.93;;
21266;SDS011;10791;53.108;18.326;2023-09-18T18:17:22;17.15;;;10.30;;
21266;SDS011;10791;53.108;18.326;2023-09-18T18:22:25;17.52;;;10.57;;
21266;SDS011;10791;53.108;18.326;2023-09-18T18:27:28;15.15;;;10.50;;
21266;SDS011;10791;53.108;18.326;2023-09-18T18:32:32;12.77;;;9.43;;
21266;SDS011;10791;53.108;18.326;2023-09-18T18:37:35;15.30;;;9.90;;
21266;SDS011;10791;53.108;18.326;2023-09-18T18:42:38;14.15;;;9.90;;
21266;SDS011;10791;53.108;18.326;2023-09-18T18:47:42;15.48;;;9.82;;
21266;SDS011;10791;53.108;18.326;2023-09-18T18:52:46;13.65;;;9.13;;
21266;SDS011;10791;53.108;18.326;2023-09-18T18:57:50;13.57;;;9.18;;
21266;SDS011;10791;53.108;18.326;2023-09-18T19:02:54;14.57;;;9.73;;
21266;SDS011;10791;53.108;18.326;2023-09-18T19:07:57;16.30;;;9.82;;
21266;SDS011;10791;53.108;18.326;2023-09-18T19:13:00;16.52;;;11.30;;
21266;SDS011;10791;53.108;18.326;2023-09-18T19:18:04;16.95;;;11.75;;
21266;SDS011;10791;53.108;18.326;2023-09-18T19:28:56;19.23;;;10.65;;
21266;SDS011;10791;53.108;18.326;2023-09-18T19:34:00;21.25;;;11.68;;
21266;SDS011;10791;53.108;18.326;2023-09-18T19:39:11;18.83;;;11.02;;
21266;SDS011;10791;53.108;18.326;2023-09-18T19:44:19;17.30;;;11.70;;
21266;SDS011;10791;53.108;18.326;2023-09-18T19:49:32;18.85;;;11.88;;
21266;SDS011;10791;53.108;18.326;2023-09-18T19:54:43;15.60;;;11.13;;
21266;SDS011;10791;53.108;18.326;2023-09-18T19:59:58;21.52;;;11.82;;
21266;SDS011;10791;53.108;18.326;2023-09-18T20:05:02;17.25;;;11.55;;
21266;SDS011;10791;53.108;18.326;2023-09-18T20:10:07;16.80;;;11.45;;
21266;SDS011;10791;53.108;18.326;2023-09-18T20:15:23;18.95;;;12.77;;
21266;SDS011;10791;53.108;18.326;2023-09-18T20:20:32;23.23;;;11.30;;
21266;SDS011;10791;53.108;18.326;2023-09-18T20:25:41;17.50;;;11.88;;
21266;SDS011;10791;53.108;18.326;2023-09-18T20:30:50;15.80;;;11.98;;
21266;SDS011;10791;53.108;18.326;2023-09-18T20:35:59;13.73;;;11.40;;
21266;SDS011;10791;53.108;18.326;2023-09-18T20:41:03;18.80;;;11.63;;
21266;SDS011;10791;53.108;18.326;2023-09-18T20:46:11;17.45;;;12.95;;
21266;SDS011;10791;53.108;18.326;2023-09-18T20:51:14;19.35;;;11.90;;
21266;SDS011;10791;53.108;18.326;2023-09-18T20:56:22;19.13;;;12.80;;
21266;SDS011;10791;53.108;18.326;2023-09-18T21:01:25;20.02;;;12.07;;
21266;SDS011;10791;53.108;18.326;2023-09-18T21:06:31;15.70;;;11.38;;
21266;SDS011;10791;53.108;18.326;2023-09-18T21:11:39;19.05;;;12.90;;
21266;SDS011;10791;53.108;18.326;2023-09-18T21:16:46;16.17;;;12.65;;
21266;SDS011;10791;53.108;18.326;2023-09-18T21:21:50;20.25;;;12.82;;
21266;SDS011;10791;53.108;18.326;2023-09-18T21:26:54;16.48;;;11.80;;
21266;SDS011;10791;53.108;18.326;2023-09-18T21:31:57;17.90;;;11.85;;
21266;SDS011;10791;53.108;18.326;2023-09-18T21:37:03;21.55;;;12.27;;
21266;SDS011;10791;53.108;18.326;2023-09-18T21:42:07;19.95;;;12.45;;
21266;SDS011;10791;53.108;18.326;2023-09-18T21:47:11;22.67;;;13.68;;
21266;SDS011;10791;53.108;18.326;2023-09-18T21:52:15;21.00;;;12.52;;
21266;SDS011;10791;53.108;18.326;2023-09-18T21:57:20;19.00;;;12.60;;
21266;SDS011;10791;53.108;18.326;2023-09-18T22:02:23;19.50;;;12.02;;
21266;SDS011;10791;53.108;18.326;2023-09-18T22:07:27;19.73;;;12.30;;
21266;SDS011;10791;53.108;18.326;2023-09-18T22:12:31;19.30;;;12.90;;
21266;SDS011;10791;53.108;18.326;2023-09-18T22:17:34;21.67;;;12.82;;
21266;SDS011;10791;53.108;18.326;2023-09-18T22:22:38;20.67;;;12.18;;
21266;SDS011;10791;53.108;18.326;2023-09-18T22:27:41;20.05;;;12.73;;
21266;SDS011;10791;53.108;18.326;2023-09-18T22:32:45;18.45;;;12.68;;
21266;SDS011;10791;53.108;18.326;2023-09-18T22:37:52;20.90;;;12.90;;
21266;SDS011;10791;53.108;18.326;2023-09-18T22:59:27;20.45;;;13.52;;
21266;SDS011;10791;53.108;18.326;2023-09-18T23:04:33;18.73;;;13.38;;
21266;SDS011;10791;53.108;18.326;2023-09-18T23:09:38;17.13;;;11.93;;
21266;SDS011;10791;53.108;18.326;2023-09-18T23:14:41;21.13;;;14.45;;
21266;SDS011;10791;53.108;18.326;2023-09-18T23:19:47;17.77;;;13.55;;
21266;SDS011;10791;53.108;18.326;2023-09-18T23:24:50;24.17;;;13.82;;
21266;SDS011;10791;53.108;18.326;2023-09-18T23:29:55;20.95;;;14.43;;
21266;SDS011;10791;53.108;18.326;2023-09-18T23:34:58;20.27;;;14.38;;
21266;SDS011;10791;53.108;18.326;2023-09-18T23:40:02;23.77;;;14.25;;
21266;SDS011;10791;53.108;18.326;2023-09-18T23:45:09;25.42;;;15.38;;
21266;SDS011;10791;53.108;18.326;2023-09-18T23:50:14;20.98;;;14.23;;
21266;SDS011;10791;53.108;18.326;2023-09-18T23:55:18;22.67;;;14.55;;
